Ryazhsk, Russia
Current Conditions -  °F | °C
As of 6:00 AM on Saturday 01 Nov 2014 (Local Time) from UUDD Reporting Station
Broken Clouds Broken Clouds  
Wind Chill: 30°   Ceiling: 1600
Heat Index: 34°   Visibility: 6mi
Dew Point: 30°   Wind: 4mph
Humidity: 87%   Direction: 280°W
Pressure: 30.03"   Gusts: NA
Location:  53.71°N, 40.07°E
Report Text: UUDD 010300Z 28002MPS 9999 BKN016 01/M01 Q1017 82010095 NOSIG
Loading
Personal Weather Stations






























Interactive Weather Map New forecast layout! Learn more

10-Day Weather Forecast

Advertisements
Track Severe Weather on mobile